createdAt,value
2022-08-14T00:01:55.369Z,7.40
2022-08-14T00:04:31.894Z,6.80
2022-08-14T00:07:03.524Z,13.90
2022-08-14T00:09:32.908Z,6.87
2022-08-14T00:12:00.155Z,6.20
2022-08-14T00:14:27.832Z,6.90
2022-08-14T00:16:55.900Z,6.67
2022-08-14T00:19:23.016Z,11.40
2022-08-14T00:21:51.079Z,6.87
2022-08-14T00:24:28.371Z,8.17
2022-08-14T00:26:55.960Z,6.67
2022-08-14T00:29:25.625Z,6.73
2022-08-14T00:31:56.652Z,7.60
2022-08-14T00:34:36.372Z,10.83
2022-08-14T00:37:10.766Z,7.70
2022-08-14T00:39:38.214Z,7.97
2022-08-14T00:42:05.744Z,7.80
2022-08-14T00:44:33.442Z,7.23
2022-08-14T00:47:01.094Z,7.63
2022-08-14T00:49:37.948Z,7.90
2022-08-14T00:52:10.388Z,8.93
2022-08-14T00:54:42.425Z,7.90
2022-08-14T00:57:09.412Z,8.17
2022-08-14T00:59:36.336Z,8.87
2022-08-14T01:02:05.302Z,9.20
2022-08-14T01:04:53.344Z,7.93
2022-08-14T01:07:22.579Z,7.27
2022-08-14T01:09:52.948Z,8.77
2022-08-14T01:12:26.554Z,8.93
2022-08-14T01:14:58.240Z,7.77
2022-08-14T01:17:49.556Z,8.63
2022-08-14T01:20:35.771Z,8.00
2022-08-14T01:23:09.694Z,8.07
2022-08-14T01:25:42.833Z,8.20
2022-08-14T01:28:11.287Z,8.07
2022-08-14T01:30:56.953Z,8.27
2022-08-14T01:33:28.154Z,9.57
2022-08-14T01:36:05.518Z,8.30
2022-08-14T01:38:37.026Z,8.23
2022-08-14T01:41:11.920Z,9.20
2022-08-14T01:43:56.134Z,8.27
2022-08-14T01:46:25.186Z,9.30
2022-08-14T01:49:01.389Z,8.10
2022-08-14T01:51:28.961Z,8.13
2022-08-14T01:53:58.510Z,10.73
2022-08-14T01:56:37.342Z,8.23
2022-08-14T01:59:09.570Z,8.10
2022-08-14T02:01:37.742Z,8.67
2022-08-14T02:04:05.201Z,8.43
2022-08-14T02:06:49.992Z,8.40
2022-08-14T02:09:22.538Z,10.07
2022-08-14T02:11:50.472Z,8.00
2022-08-14T02:14:31.347Z,8.90
2022-08-14T02:17:00.463Z,9.27
2022-08-14T02:19:32.209Z,7.47
2022-08-14T02:22:03.169Z,8.57
2022-08-14T02:24:39.797Z,7.90
2022-08-14T02:28:23.171Z,8.23
2022-08-14T02:30:01.696Z,9.40
2022-08-14T02:32:37.225Z,8.33
2022-08-14T02:35:17.822Z,9.53
2022-08-14T02:37:48.156Z,8.00
2022-08-14T02:40:17.618Z,11.43
2022-08-14T02:42:55.286Z,9.40
2022-08-14T02:45:24.922Z,8.97
2022-08-14T02:48:00.294Z,9.60
2022-08-14T02:50:28.550Z,9.63
2022-08-14T02:53:02.967Z,10.07
2022-08-14T02:55:31.703Z,8.73
2022-08-14T02:58:03.597Z,8.77
2022-08-14T03:00:34.496Z,11.17
2022-08-14T03:03:02.468Z,9.70
2022-08-14T03:05:36.068Z,8.90
2022-08-14T03:08:08.727Z,12.43
2022-08-14T03:10:36.839Z,10.20
2022-08-14T03:13:19.024Z,10.03
2022-08-14T03:15:51.022Z,10.20
2022-08-14T03:18:31.258Z,9.83
2022-08-14T03:21:00.613Z,9.30
2022-08-14T03:23:27.465Z,9.93
2022-08-14T03:25:55.103Z,9.10
2022-08-14T03:28:29.593Z,9.70
2022-08-14T03:31:00.693Z,10.07
2022-08-14T03:33:28.322Z,10.03
2022-08-14T03:37:28.848Z,9.87
2022-08-14T03:39:11.791Z,9.73
2022-08-14T03:41:45.816Z,9.87
2022-08-14T03:45:25.640Z,9.63
2022-08-14T03:46:59.366Z,9.80
2022-08-14T03:49:30.059Z,10.20
2022-08-14T03:51:57.453Z,11.07
2022-08-14T03:54:25.174Z,9.63
2022-08-14T03:56:53.836Z,9.67
2022-08-14T03:59:21.555Z,10.10
2022-08-14T04:01:58.154Z,8.93
2022-08-14T04:04:29.043Z,9.47
2022-08-14T04:06:58.947Z,10.00
2022-08-14T04:09:26.929Z,12.47
2022-08-14T04:11:56.172Z,10.17
2022-08-14T04:14:24.791Z,9.70
2022-08-14T04:16:51.790Z,9.97
2022-08-14T04:19:23.114Z,9.57
2022-08-14T04:22:03.216Z,10.33
2022-08-14T04:24:31.920Z,10.10
2022-08-14T04:27:08.212Z,10.00
2022-08-14T04:29:37.909Z,9.70
2022-08-14T04:33:02.971Z,9.33
2022-08-14T04:34:55.009Z,9.67
2022-08-14T04:37:40.752Z,10.03
2022-08-14T04:40:27.988Z,10.13
2022-08-14T04:43:14.439Z,9.50
2022-08-14T04:45:44.551Z,9.77
2022-08-14T04:48:12.804Z,10.93
2022-08-14T04:50:44.554Z,10.67
2022-08-14T04:53:13.969Z,10.83
2022-08-14T04:55:42.226Z,11.33
2022-08-14T04:58:09.683Z,9.67
2022-08-14T05:00:50.223Z,10.07
2022-08-14T05:03:20.334Z,9.70
2022-08-14T05:05:50.227Z,10.73
2022-08-14T05:08:32.170Z,9.67
2022-08-14T05:11:13.284Z,11.60
2022-08-14T05:16:30.350Z,9.60
2022-08-14T05:19:25.052Z,9.30
2022-08-14T05:21:55.939Z,10.13
2022-08-14T05:24:25.350Z,9.10
2022-08-14T05:26:52.691Z,9.40
2022-08-14T05:29:20.746Z,9.00
2022-08-14T05:31:47.659Z,8.73
2022-08-14T05:34:14.419Z,9.07
2022-08-14T05:36:43.054Z,10.97
2022-08-14T05:39:17.542Z,11.00
2022-08-14T05:41:53.609Z,7.70
2022-08-14T05:44:21.705Z,8.20
2022-08-14T05:46:48.559Z,7.90
2022-08-14T05:49:15.369Z,8.33
2022-08-14T05:51:46.125Z,9.73
2022-08-14T05:54:20.639Z,9.17
2022-08-14T05:56:54.233Z,9.07
2022-08-14T05:59:31.558Z,10.37
2022-08-14T06:02:06.027Z,9.13
2022-08-14T06:04:32.865Z,8.80
2022-08-14T06:06:59.592Z,9.33
2022-08-14T06:09:26.287Z,9.67
2022-08-14T06:11:53.007Z,11.10
2022-08-14T06:14:21.301Z,9.63
2022-08-14T06:16:53.278Z,8.77
2022-08-14T06:19:20.313Z,8.73
2022-08-14T06:21:55.820Z,14.70
2022-08-14T06:24:26.296Z,8.97
2022-08-14T06:26:56.835Z,9.63
2022-08-14T06:29:32.213Z,9.33
2022-08-14T06:32:52.226Z,8.93
2022-08-14T06:35:02.441Z,9.40
2022-08-14T06:37:45.316Z,9.00
2022-08-14T06:40:25.435Z,8.97
2022-08-14T06:42:55.573Z,10.43
2022-08-14T06:45:26.064Z,11.07
2022-08-14T06:47:54.669Z,8.47
2022-08-14T06:50:27.918Z,9.33
2022-08-14T06:52:55.837Z,8.53
2022-08-14T06:55:27.923Z,8.77
2022-08-14T06:57:55.547Z,12.00
2022-08-14T07:00:26.672Z,8.60
2022-08-14T07:03:13.384Z,9.07
2022-08-14T07:05:55.309Z,9.83
2022-08-14T07:08:26.081Z,8.73
2022-08-14T07:10:59.571Z,11.27
2022-08-14T07:13:26.963Z,9.13
2022-08-14T07:15:58.370Z,9.00
2022-08-14T07:18:27.667Z,9.37
2022-08-14T07:20:56.354Z,8.80
2022-08-14T07:23:25.180Z,8.33
2022-08-14T07:25:53.570Z,7.80
2022-08-14T07:28:23.061Z,9.83
2022-08-14T07:30:51.997Z,7.83
2022-08-14T07:33:24.398Z,7.30
2022-08-14T07:35:59.417Z,7.80
2022-08-14T07:38:30.800Z,9.47
2022-08-14T07:41:04.488Z,7.90
2022-08-14T07:43:39.721Z,9.63
2022-08-14T07:46:07.222Z,7.63
2022-08-14T07:48:38.329Z,7.57
2022-08-14T07:51:11.149Z,7.07
2022-08-14T07:53:40.404Z,8.77
2022-08-14T07:56:21.917Z,7.30
2022-08-14T07:59:05.613Z,8.97
2022-08-14T08:01:35.959Z,7.07
2022-08-14T08:04:03.840Z,7.23
2022-08-14T08:06:44.330Z,7.23
2022-08-14T08:09:12.321Z,6.57
2022-08-14T08:11:41.962Z,6.70
2022-08-14T08:14:16.273Z,5.63
2022-08-14T08:16:46.670Z,7.95
2022-08-14T08:19:18.113Z,6.30
2022-08-14T08:21:46.264Z,6.90
2022-08-14T08:24:18.508Z,10.00
2022-08-14T08:26:46.927Z,6.57
2022-08-14T08:29:20.150Z,9.65
2022-08-14T08:31:52.416Z,10.57
2022-08-14T08:34:20.430Z,8.13
2022-08-14T08:36:51.270Z,7.03
2022-08-14T08:39:22.429Z,10.18
2022-08-14T08:41:50.680Z,7.93
2022-08-14T08:44:31.914Z,7.65
2022-08-14T08:47:04.555Z,6.03
2022-08-14T08:49:42.294Z,9.70
2022-08-14T08:52:24.504Z,6.60
2022-08-14T08:55:07.727Z,13.85
2022-08-14T08:57:37.793Z,7.18
2022-08-14T09:00:25.114Z,6.45
2022-08-14T09:02:56.665Z,7.70
2022-08-14T09:05:24.010Z,4.85
2022-08-14T09:07:56.493Z,7.63
2022-08-14T09:10:23.753Z,4.95
2022-08-14T09:12:55.464Z,7.07
2022-08-14T09:15:22.150Z,5.93
2022-08-14T09:17:51.687Z,6.13
2022-08-14T09:20:26.434Z,6.45
2022-08-14T09:22:58.825Z,6.25
2022-08-14T09:25:58.789Z,4.78
2022-08-14T09:28:13.141Z,9.68
2022-08-14T09:30:44.350Z,7.00
2022-08-14T09:33:37.164Z,7.03
2022-08-14T09:36:34.103Z,11.27
2022-08-14T09:39:21.146Z,6.45
2022-08-14T09:42:20.108Z,5.75
2022-08-14T09:45:09.879Z,5.88
2022-08-14T09:47:45.444Z,3.85
2022-08-14T09:50:26.087Z,5.18
2022-08-14T09:52:56.955Z,4.80
2022-08-14T09:55:27.821Z,6.43
2022-08-14T09:58:09.345Z,12.95
2022-08-14T10:00:47.597Z,8.68
2022-08-14T10:03:26.546Z,5.78
2022-08-14T10:06:04.917Z,4.72
2022-08-14T10:08:44.313Z,3.45
2022-08-14T10:11:23.549Z,6.15
2022-08-14T10:13:59.535Z,6.43
2022-08-14T10:16:33.239Z,5.07
2022-08-14T10:19:05.740Z,4.85
2022-08-14T10:21:38.829Z,5.47
2022-08-14T10:24:31.224Z,6.47
2022-08-14T10:27:16.340Z,3.97
2022-08-14T10:29:44.623Z,3.80
2022-08-14T10:32:18.061Z,5.57
2022-08-14T10:35:06.114Z,4.40
2022-08-14T10:37:38.498Z,3.88
2022-08-14T10:40:32.497Z,3.72
2022-08-14T10:42:56.035Z,5.93
2022-08-14T10:45:29.794Z,4.72
2022-08-14T10:48:07.611Z,4.40
2022-08-14T10:50:49.703Z,4.47
2022-08-14T10:53:26.675Z,3.60
2022-08-14T10:55:58.617Z,5.03
2022-08-14T10:58:29.504Z,6.72
2022-08-14T11:01:04.740Z,4.28
2022-08-14T11:03:56.206Z,8.50
2022-08-14T11:06:24.756Z,5.07
2022-08-14T11:08:51.681Z,5.20
2022-08-14T11:11:20.283Z,4.03
2022-08-14T11:13:50.050Z,7.03
2022-08-14T11:16:17.671Z,3.47
2022-08-14T11:18:46.206Z,6.70
2022-08-14T11:21:21.384Z,7.40
2022-08-14T11:23:49.001Z,4.45
2022-08-14T11:26:23.411Z,7.85
2022-08-14T11:28:52.936Z,4.30
2022-08-14T11:31:23.104Z,6.78
2022-08-14T11:33:53.216Z,4.05
2022-08-14T11:36:35.037Z,3.50
2022-08-14T11:39:22.994Z,5.35
2022-08-14T11:42:57.320Z,8.50
2022-08-14T11:44:53.910Z,3.45
2022-08-14T11:47:24.056Z,3.35
2022-08-14T11:49:52.001Z,5.72
2022-08-14T11:52:18.926Z,4.35
2022-08-14T11:54:55.700Z,6.80
2022-08-14T11:57:23.050Z,4.15
2022-08-14T12:00:00.748Z,6.30
2022-08-14T12:03:00.546Z,8.05
2022-08-14T12:05:14.579Z,6.20
2022-08-14T12:07:49.101Z,5.13
2022-08-14T12:10:26.858Z,6.97
2022-08-14T12:13:17.525Z,4.75
2022-08-14T12:15:48.950Z,4.28
2022-08-14T12:18:29.466Z,5.15
2022-08-14T12:21:00.169Z,5.47
2022-08-14T12:23:27.677Z,7.00
2022-08-14T12:26:38.788Z,6.57
2022-08-14T12:28:59.306Z,7.43
2022-08-14T12:31:27.942Z,5.60
2022-08-14T12:34:10.118Z,4.05
2022-08-14T12:36:37.514Z,6.30
2022-08-14T12:39:17.775Z,5.72
2022-08-14T12:41:53.735Z,5.00
2022-08-14T12:44:29.708Z,7.18
2022-08-14T12:47:05.025Z,4.00
2022-08-14T12:49:33.768Z,4.22
2022-08-14T12:52:02.608Z,6.17
2022-08-14T12:54:32.330Z,5.13
2022-08-14T12:57:08.299Z,4.23
2022-08-14T12:59:37.076Z,5.97
2022-08-14T13:02:26.860Z,4.07
2022-08-14T13:04:56.560Z,4.50
2022-08-14T13:07:26.995Z,6.78
2022-08-14T13:09:59.964Z,4.40
2022-08-14T13:12:32.018Z,6.50
2022-08-14T13:15:08.982Z,3.90
2022-08-14T13:17:42.866Z,4.57
2022-08-14T13:20:23.271Z,5.57
2022-08-14T13:22:52.579Z,7.27
2022-08-14T13:25:20.715Z,5.33
2022-08-14T13:27:50.412Z,4.97
2022-08-14T13:30:24.308Z,4.83
2022-08-14T13:32:53.072Z,4.20
2022-08-14T13:35:20.407Z,4.33
2022-08-14T13:37:52.097Z,4.90
2022-08-14T13:40:26.354Z,4.17
2022-08-14T13:42:55.036Z,4.17
2022-08-14T13:45:24.630Z,3.40
2022-08-14T13:48:01.819Z,4.13
2022-08-14T13:50:30.100Z,4.77
2022-08-14T13:53:00.866Z,3.27
2022-08-14T13:55:30.898Z,3.47
2022-08-14T13:58:03.658Z,4.03
2022-08-14T14:00:35.938Z,6.00
2022-08-14T14:03:20.630Z,4.30
2022-08-14T14:05:52.514Z,4.43
2022-08-14T14:08:47.025Z,4.00
2022-08-14T14:11:10.143Z,3.47
2022-08-14T14:13:41.861Z,4.27
2022-08-14T14:16:15.078Z,4.57
2022-08-14T14:18:48.264Z,6.33
2022-08-14T14:21:20.261Z,4.80
2022-08-14T14:23:51.711Z,5.07
2022-08-14T14:26:23.895Z,4.73
2022-08-14T14:28:55.174Z,3.90
2022-08-14T14:31:30.270Z,3.63
2022-08-14T14:34:00.537Z,4.30
2022-08-14T14:36:29.927Z,2.90
2022-08-14T14:39:12.887Z,3.47
2022-08-14T14:41:43.575Z,4.43
2022-08-14T14:44:16.486Z,4.73
2022-08-14T14:46:50.204Z,4.97
2022-08-14T14:49:21.623Z,5.30
2022-08-14T14:51:51.653Z,3.93
2022-08-14T14:54:31.155Z,3.87
2022-08-14T14:57:08.944Z,2.90
2022-08-14T14:59:37.888Z,5.80
2022-08-14T15:02:07.989Z,5.40
2022-08-14T15:04:38.755Z,5.27
2022-08-14T15:07:13.295Z,5.27
2022-08-14T15:09:43.716Z,2.33
2022-08-14T15:12:34.579Z,3.27
2022-08-14T15:15:08.441Z,3.43
2022-08-14T15:17:41.162Z,2.63
2022-08-14T15:20:17.186Z,3.10
2022-08-14T15:22:47.211Z,3.93
2022-08-14T15:25:19.039Z,2.40
2022-08-14T15:27:49.972Z,2.80
2022-08-14T15:30:23.645Z,6.73
2022-08-14T15:32:51.663Z,6.67
2022-08-14T15:35:25.755Z,3.17
2022-08-14T15:37:56.471Z,4.68
2022-08-14T15:40:23.582Z,2.83
2022-08-14T15:42:50.329Z,5.82
2022-08-14T15:45:17.202Z,3.30
2022-08-14T15:47:44.424Z,2.70
2022-08-14T15:50:12.137Z,4.27
2022-08-14T15:52:40.827Z,3.03
2022-08-14T15:55:16.627Z,3.30
2022-08-14T15:57:51.766Z,3.40
2022-08-14T16:00:49.337Z,3.73
2022-08-14T16:03:17.447Z,2.90
2022-08-14T16:05:46.104Z,2.77
2022-08-14T16:08:26.724Z,3.80
2022-08-14T16:11:00.331Z,3.30
2022-08-14T16:13:41.398Z,4.68
2022-08-14T16:16:47.492Z,5.90
2022-08-14T16:18:59.272Z,3.10
2022-08-14T16:21:31.954Z,3.27
2022-08-14T16:24:00.489Z,3.47
2022-08-14T16:26:29.796Z,3.83
2022-08-14T16:29:03.755Z,5.67
2022-08-14T16:31:36.030Z,4.73
2022-08-14T16:34:46.399Z,7.07
2022-08-14T16:36:51.300Z,5.43
2022-08-14T16:39:20.766Z,3.77
2022-08-14T16:41:52.143Z,4.33
2022-08-14T16:44:31.812Z,4.60
2022-08-14T16:47:03.246Z,5.37
2022-08-14T16:50:02.764Z,3.97
2022-08-14T16:52:25.839Z,6.40
2022-08-14T16:55:06.770Z,6.53
2022-08-14T16:57:33.759Z,5.33
2022-08-14T17:00:07.012Z,4.83
2022-08-14T17:02:37.059Z,7.97
2022-08-14T17:05:16.860Z,5.20
2022-08-14T17:08:30.901Z,8.10
2022-08-14T17:11:04.761Z,7.90
2022-08-14T17:13:58.754Z,5.90
2022-08-14T17:16:25.663Z,6.17
2022-08-14T17:18:55.393Z,6.70
2022-08-14T17:21:31.209Z,9.33
2022-08-14T17:24:01.481Z,5.13
2022-08-14T17:26:55.048Z,8.67
2022-08-14T17:29:29.451Z,4.63
2022-08-14T17:32:02.092Z,6.30
2022-08-14T17:34:45.659Z,9.33
2022-08-14T17:37:25.217Z,6.20
2022-08-14T17:40:15.048Z,5.37
2022-08-14T17:43:00.875Z,5.70
2022-08-14T17:45:43.206Z,9.23
2022-08-14T17:49:10.546Z,8.20
2022-08-14T17:51:14.145Z,10.37
2022-08-14T17:53:53.592Z,5.77
2022-08-14T17:56:29.168Z,5.10
2022-08-14T17:59:05.078Z,5.87
2022-08-14T18:01:37.314Z,5.77
2022-08-14T18:04:28.579Z,6.93
2022-08-14T18:06:58.783Z,6.87
2022-08-14T18:09:57.234Z,6.47
2022-08-14T18:12:32.732Z,6.80
2022-08-14T18:15:16.012Z,5.93
2022-08-14T18:17:52.997Z,8.90
2022-08-14T18:21:42.982Z,6.37
2022-08-14T18:23:13.082Z,6.77
2022-08-14T18:25:46.938Z,5.93
2022-08-14T18:28:18.441Z,7.73
2022-08-14T18:31:41.906Z,6.17
2022-08-14T18:34:13.608Z,5.43
2022-08-14T18:37:09.661Z,9.37
2022-08-14T18:40:01.939Z,6.80
2022-08-14T18:42:44.286Z,10.90
2022-08-14T18:45:15.690Z,7.37
2022-08-14T18:50:46.034Z,5.93
2022-08-14T18:53:12.833Z,5.73
2022-08-14T18:55:54.542Z,5.93
2022-08-14T18:58:30.452Z,8.07
2022-08-14T19:00:59.843Z,8.33
2022-08-14T19:03:55.440Z,8.63
2022-08-14T19:06:46.355Z,6.40
2022-08-14T19:09:56.362Z,8.13
2022-08-14T19:13:02.218Z,6.43
2022-08-14T19:15:31.935Z,7.73
2022-08-14T19:18:14.692Z,10.10
2022-08-14T19:20:49.338Z,7.40
2022-08-14T19:23:22.806Z,8.03
2022-08-14T19:25:56.312Z,6.30
2022-08-14T19:28:31.159Z,6.57
2022-08-14T19:31:41.919Z,6.07
2022-08-14T19:34:09.717Z,9.23
2022-08-14T19:37:05.604Z,9.20
2022-08-14T19:39:46.692Z,8.57
2022-08-14T19:42:14.267Z,7.87
2022-08-14T19:44:57.114Z,11.27
2022-08-14T19:47:38.502Z,9.50
2022-08-14T19:50:37.977Z,8.67
2022-08-14T19:53:05.402Z,12.33
2022-08-14T19:55:45.603Z,6.40
2022-08-14T19:58:13.257Z,7.17
2022-08-14T20:00:52.783Z,7.50
2022-08-14T20:03:24.745Z,8.40
2022-08-14T20:05:59.740Z,7.23
2022-08-14T20:10:59.816Z,10.23
2022-08-14T20:12:00.609Z,9.60
2022-08-14T20:14:20.421Z,6.57
2022-08-14T20:16:49.702Z,10.40
2022-08-14T20:19:20.320Z,10.43
2022-08-14T20:22:04.214Z,8.37
2022-08-14T20:24:41.135Z,10.47
2022-08-14T20:27:24.771Z,8.40
2022-08-14T20:33:00.710Z,13.00
2022-08-14T20:35:35.708Z,8.10
2022-08-14T20:38:30.855Z,11.53
2022-08-14T20:40:58.411Z,8.43
2022-08-14T20:43:44.791Z,11.70
2022-08-14T20:46:13.680Z,10.30
2022-08-14T20:48:59.307Z,11.07
2022-08-14T20:51:36.683Z,18.70
2022-08-14T20:54:06.489Z,10.67
2022-08-14T20:56:36.237Z,12.20
2022-08-14T20:59:15.643Z,32.43
2022-08-14T21:01:46.987Z,15.33
2022-08-14T21:04:30.851Z,10.40
2022-08-14T21:07:25.703Z,10.57
2022-08-14T21:10:06.338Z,11.17
2022-08-14T21:13:14.398Z,9.97
2022-08-14T21:15:36.155Z,9.87
2022-08-14T21:18:04.649Z,12.60
2022-08-14T21:20:31.600Z,8.37
2022-08-14T21:23:01.906Z,8.37
2022-08-14T21:25:31.727Z,9.47
2022-08-14T21:28:01.669Z,10.37
2022-08-14T21:30:51.699Z,9.27
2022-08-14T21:33:19.897Z,8.73
2022-08-14T21:35:48.755Z,8.73
2022-08-14T21:38:22.081Z,9.57
2022-08-14T21:41:41.684Z,8.97
2022-08-14T21:44:00.962Z,11.67
2022-08-14T21:46:29.458Z,9.73
2022-08-14T21:48:57.425Z,8.03
2022-08-14T21:51:55.894Z,9.73
2022-08-14T21:54:30.279Z,8.57
2022-08-14T21:57:02.226Z,11.53
2022-08-14T21:59:31.536Z,9.40
2022-08-14T22:02:03.501Z,11.90
2022-08-14T22:04:40.057Z,8.67
2022-08-14T22:07:10.429Z,9.63
2022-08-14T22:09:39.139Z,8.50
2022-08-14T22:12:47.367Z,8.67
2022-08-14T22:15:00.341Z,9.23
2022-08-14T22:17:32.107Z,11.30
2022-08-14T22:20:01.428Z,9.40
2022-08-14T22:22:31.921Z,10.13
2022-08-14T22:24:59.688Z,8.30
2022-08-14T22:27:29.596Z,13.17
2022-08-14T22:30:00.661Z,9.40
2022-08-14T22:32:35.178Z,14.03
2022-08-14T22:35:16.449Z,10.33
2022-08-14T22:37:44.639Z,10.37
2022-08-14T22:40:54.931Z,11.37
2022-08-14T22:43:08.179Z,10.57
2022-08-14T22:45:36.598Z,13.73
2022-08-14T22:48:10.771Z,12.47
2022-08-14T22:50:48.911Z,10.07
2022-08-14T22:53:20.803Z,10.33
2022-08-14T22:55:52.477Z,11.03
2022-08-14T22:58:31.523Z,11.03
2022-08-14T23:01:02.258Z,12.03
2022-08-14T23:03:30.456Z,10.47
2022-08-14T23:06:02.650Z,10.57
2022-08-14T23:08:59.071Z,11.83
2022-08-14T23:11:29.106Z,13.33
2022-08-14T23:13:56.167Z,14.97
2022-08-14T23:16:31.053Z,10.77
2022-08-14T23:18:58.116Z,11.00
2022-08-14T23:21:28.656Z,11.37
2022-08-14T23:23:57.734Z,11.27
2022-08-14T23:26:49.448Z,12.03
2022-08-14T23:29:14.320Z,11.17
2022-08-14T23:31:45.238Z,10.37
2022-08-14T23:34:20.892Z,10.47
2022-08-14T23:36:53.232Z,10.43
2022-08-14T23:39:24.289Z,12.87
2022-08-14T23:41:53.698Z,13.10
2022-08-14T23:44:23.834Z,11.60
2022-08-14T23:46:52.709Z,15.07
2022-08-14T23:49:24.703Z,11.03
2022-08-14T23:51:59.718Z,11.10
2022-08-14T23:54:49.229Z,12.17
2022-08-14T23:57:19.189Z,12.87
2022-08-14T23:59:54.279Z,11.13
